LDZD/ZAD METAR and TAF weather

Enter ICAO airport designator
Station Type Date Time Source
LDZD METAR 2021/02/27 21:00 UTC NOAA

LDZD 272100Z 06017KT 030V100 CAVOK 10/M02 Q1026


Station Type Date Time Source
LDZD Decoded METAR 2021/02/27 21:00 UTC NOAA

Zadar / Zemunik, Croatia (LDZD) 44-06N 015-21E
Feb 27, 2021 - 04:00 PM EST / 2021.02.27 2100 UTC
Wind: from the ENE (060 degrees) at 20 MPH (17 KT) (direction variable):0
Visibility: greater than 7 mile(s):0
Temperature: 50 F (10 C)
Dew Point: 28 F (-2 C)
Relative Humidity: 42%
Pressure (altimeter): 30.30 in. Hg (1026 hPa)
ob: LDZD 272100Z 06017KT 030V100 CAVOK 10/M02 Q1026
cycle: 21

Station Type Date Time Source
LDZD TAF 2021/02/27 18:27 UTC NOAA

TAF LDZD 271725Z 2718/2818 06012KT CAVOK TX15/2812Z TN06/2806Z PROB40
TEMPO 2718/2802 05018G28KT
TEMPO 2809/2812 VRB09KT
TEMPO 2812/2816 33010KT
BECMG 2815/2817 06005KT

Example: see airport list